createdAt,value
2023-04-18T00:02:07.408Z,2.97
2023-04-18T00:04:35.525Z,3.10
2023-04-18T00:07:03.685Z,2.90
2023-04-18T00:09:31.382Z,2.60
2023-04-18T00:12:01.712Z,3.20
2023-04-18T00:14:30.121Z,3.03
2023-04-18T00:16:59.457Z,3.10
2023-04-18T00:19:27.971Z,2.80
2023-04-18T00:21:56.227Z,3.00
2023-04-18T00:24:24.818Z,3.07
2023-04-18T00:26:53.537Z,2.90
2023-04-18T00:29:22.703Z,3.00
2023-04-18T00:31:50.523Z,2.90
2023-04-18T00:34:18.510Z,3.00
2023-04-18T00:36:46.702Z,2.77
2023-04-18T00:39:14.403Z,2.87
2023-04-18T00:41:42.342Z,3.10
2023-04-18T00:44:10.520Z,3.20
2023-04-18T00:46:40.207Z,3.07
2023-04-18T00:49:09.226Z,3.40
2023-04-18T00:51:41.796Z,3.20
2023-04-18T00:54:13.565Z,3.30
2023-04-18T00:56:42.337Z,3.03
2023-04-18T00:59:11.502Z,3.63
2023-04-18T01:01:41.937Z,2.80
2023-04-18T01:04:12.305Z,3.30
2023-04-18T01:06:40.775Z,3.27
2023-04-18T01:09:08.554Z,3.10
2023-04-18T01:11:36.489Z,3.07
2023-04-18T01:14:06.005Z,3.20
2023-04-18T01:16:35.054Z,3.50
2023-04-18T01:19:05.203Z,3.67
2023-04-18T01:21:33.985Z,3.07
2023-04-18T01:24:10.034Z,3.37
2023-04-18T01:26:37.886Z,3.40
2023-04-18T01:29:06.529Z,3.63
2023-04-18T01:31:35.793Z,3.47
2023-04-18T01:34:03.575Z,3.27
2023-04-18T01:36:31.910Z,3.60
2023-04-18T01:39:00.471Z,3.37
2023-04-18T01:41:32.963Z,3.70
2023-04-18T01:44:01.775Z,3.20
2023-04-18T01:46:30.728Z,3.80
2023-04-18T01:48:59.754Z,3.37
2023-04-18T01:51:28.571Z,3.20
2023-04-18T01:53:56.744Z,3.40
2023-04-18T01:56:24.970Z,3.50
2023-04-18T01:58:54.898Z,3.50
2023-04-18T02:01:22.714Z,3.60
2023-04-18T02:03:52.101Z,3.47
2023-04-18T02:06:20.285Z,3.60
2023-04-18T02:08:48.266Z,3.53
2023-04-18T02:11:15.893Z,4.00
2023-04-18T02:13:43.826Z,3.70
2023-04-18T02:16:14.000Z,3.50
2023-04-18T02:18:44.369Z,3.93
2023-04-18T02:21:12.211Z,4.23
2023-04-18T02:23:40.245Z,3.40
2023-04-18T02:26:08.256Z,3.83
2023-04-18T02:28:38.944Z,3.67
2023-04-18T02:31:07.429Z,4.20
2023-04-18T02:33:36.947Z,3.60
2023-04-18T02:36:05.465Z,4.20
2023-04-18T02:38:33.375Z,3.90
2023-04-18T02:41:01.264Z,3.93
2023-04-18T02:43:28.900Z,4.10
2023-04-18T02:45:57.135Z,4.57
2023-04-18T02:48:25.231Z,4.23
2023-04-18T02:50:54.468Z,4.53
2023-04-18T02:53:23.967Z,4.53
2023-04-18T02:55:52.022Z,3.97
2023-04-18T02:58:19.659Z,4.13
2023-04-18T03:00:47.431Z,4.80
2023-04-18T03:03:15.842Z,4.33
2023-04-18T03:05:43.832Z,4.53
2023-04-18T03:08:13.298Z,5.00
2023-04-18T03:10:41.378Z,4.50
2023-04-18T03:13:09.016Z,4.83
2023-04-18T03:15:37.133Z,4.87
2023-04-18T03:18:06.218Z,5.10
2023-04-18T03:20:35.132Z,5.20
2023-04-18T03:23:03.142Z,5.30
2023-04-18T03:25:32.295Z,5.13
2023-04-18T03:28:00.102Z,5.40
2023-04-18T03:30:27.970Z,5.20
2023-04-18T03:32:56.098Z,5.23
2023-04-18T03:35:23.999Z,5.43
2023-04-18T03:37:52.149Z,5.73
2023-04-18T03:40:20.478Z,5.87
2023-04-18T03:42:49.773Z,5.80
2023-04-18T03:45:18.070Z,5.67
2023-04-18T03:47:46.283Z,5.47
2023-04-18T03:50:14.119Z,5.70
2023-04-18T03:52:41.925Z,5.33
2023-04-18T03:55:11.419Z,5.40
2023-04-18T03:57:40.847Z,5.83
2023-04-18T04:00:13.726Z,5.73
2023-04-18T04:02:42.026Z,5.93
2023-04-18T04:05:10.917Z,6.10
2023-04-18T04:07:38.989Z,6.03
2023-04-18T04:10:07.905Z,6.50
2023-04-18T04:12:35.904Z,6.83
2023-04-18T04:15:04.785Z,6.30
2023-04-18T04:17:34.820Z,6.90
2023-04-18T04:20:03.826Z,7.07
2023-04-18T04:22:32.850Z,6.73
2023-04-18T04:25:01.133Z,6.77
2023-04-18T04:27:28.834Z,6.60
2023-04-18T04:29:56.979Z,6.33
2023-04-18T04:32:25.262Z,6.70
2023-04-18T04:34:56.471Z,6.20
2023-04-18T04:37:24.525Z,6.67
2023-04-18T04:39:53.855Z,6.50
2023-04-18T04:42:25.293Z,6.87
2023-04-18T04:44:54.601Z,7.07
2023-04-18T04:47:22.815Z,7.83
2023-04-18T04:49:51.016Z,7.97
2023-04-18T04:52:20.756Z,8.07
2023-04-18T04:54:49.968Z,8.20
2023-04-18T04:57:17.785Z,8.43
2023-04-18T04:59:46.127Z,8.00
2023-04-18T05:02:14.080Z,8.20
2023-04-18T05:04:41.895Z,8.27
2023-04-18T05:07:09.753Z,7.70
2023-04-18T05:09:39.588Z,7.53
2023-04-18T05:12:08.151Z,7.60
2023-04-18T05:14:37.060Z,7.93
2023-04-18T05:17:06.166Z,7.57
2023-04-18T05:19:34.076Z,7.60
2023-04-18T05:22:03.771Z,7.50
2023-04-18T05:24:32.735Z,7.00
2023-04-18T05:27:02.363Z,7.63
2023-04-18T05:29:30.152Z,6.80
2023-04-18T05:31:57.961Z,6.80
2023-04-18T05:34:25.921Z,7.10
2023-04-18T05:36:53.977Z,7.90
2023-04-18T05:39:22.072Z,6.83
2023-04-18T05:41:50.073Z,7.47
2023-04-18T05:44:19.946Z,7.37
2023-04-18T05:46:52.019Z,6.60
2023-04-18T05:49:19.990Z,7.00
2023-04-18T05:51:49.968Z,7.20
2023-04-18T05:54:18.033Z,7.00
2023-04-18T05:56:46.050Z,7.57
2023-04-18T05:59:14.358Z,8.27
2023-04-18T06:01:43.748Z,7.93
2023-04-18T06:04:11.701Z,7.50
2023-04-18T06:06:39.901Z,7.90
2023-04-18T06:09:08.326Z,8.30
2023-04-18T06:11:36.100Z,8.63
2023-04-18T06:14:04.166Z,7.63
2023-04-18T06:16:32.028Z,8.07
2023-04-18T06:19:02.780Z,8.20
2023-04-18T06:21:30.753Z,7.57
2023-04-18T06:23:58.766Z,7.83
2023-04-18T06:26:26.600Z,8.20
2023-04-18T06:28:55.943Z,8.43
2023-04-18T06:31:23.792Z,7.93
2023-04-18T06:33:53.280Z,7.70
2023-04-18T06:36:23.121Z,8.10
2023-04-18T06:38:51.234Z,8.17
2023-04-18T06:41:19.633Z,7.73
2023-04-18T06:44:02.151Z,8.27
2023-04-18T06:46:33.504Z,7.70
2023-04-18T06:49:01.638Z,7.80
2023-04-18T06:51:34.701Z,8.20
2023-04-18T06:54:02.792Z,8.00
2023-04-18T06:56:30.718Z,8.37
2023-04-18T06:58:59.487Z,8.83
2023-04-18T07:01:30.188Z,7.90
2023-04-18T07:03:59.549Z,7.80
2023-04-18T07:06:27.463Z,8.30
2023-04-18T07:09:00.220Z,8.10
2023-04-18T07:11:28.218Z,8.33
2023-04-18T07:13:56.418Z,8.33
2023-04-18T07:16:24.317Z,9.07
2023-04-18T07:18:54.201Z,8.60
2023-04-18T07:21:21.833Z,8.87
2023-04-18T07:23:49.854Z,8.20
2023-04-18T07:26:20.141Z,8.70
2023-04-18T07:28:47.847Z,8.87
2023-04-18T07:31:16.624Z,9.00
2023-04-18T07:33:44.803Z,8.47
2023-04-18T07:36:13.542Z,8.60
2023-04-18T07:38:41.458Z,9.27
2023-04-18T07:41:09.434Z,9.53
2023-04-18T07:43:38.825Z,9.37
2023-04-18T07:46:07.263Z,8.90
2023-04-18T07:48:35.164Z,9.53
2023-04-18T07:51:02.985Z,9.10
2023-04-18T07:53:33.404Z,8.93
2023-04-18T07:56:02.402Z,8.90
2023-04-18T07:58:30.353Z,8.53
2023-04-18T08:01:00.296Z,9.57
2023-04-18T08:03:29.003Z,8.80
2023-04-18T08:05:57.303Z,9.13
2023-04-18T08:08:25.569Z,8.80
2023-04-18T08:10:53.233Z,8.57
2023-04-18T08:13:21.822Z,8.27
2023-04-18T08:15:50.073Z,8.57
2023-04-18T08:18:20.040Z,8.73
2023-04-18T08:20:47.924Z,9.30
2023-04-18T08:23:15.928Z,9.60
2023-04-18T08:25:44.162Z,9.00
2023-04-18T08:28:12.014Z,9.50
2023-04-18T08:30:39.740Z,9.17
2023-04-18T08:33:07.564Z,9.10
2023-04-18T08:35:37.839Z,9.70
2023-04-18T08:38:05.584Z,8.97
2023-04-18T08:40:34.485Z,8.40
2023-04-18T08:43:05.504Z,9.27
2023-04-18T08:45:34.453Z,9.10
2023-04-18T08:48:03.925Z,9.47
2023-04-18T08:50:32.856Z,9.50
2023-04-18T08:53:02.319Z,9.60
2023-04-18T08:55:30.719Z,9.80
2023-04-18T08:57:58.414Z,8.23
2023-04-18T09:00:27.325Z,8.93
2023-04-18T09:02:57.165Z,9.37
2023-04-18T09:05:29.561Z,8.83
2023-04-18T09:07:57.823Z,9.73
2023-04-18T09:10:29.511Z,8.80
2023-04-18T09:12:59.292Z,8.43
2023-04-18T09:15:29.534Z,8.60
2023-04-18T09:18:00.106Z,9.10
2023-04-18T09:20:34.524Z,8.47
2023-04-18T09:23:05.174Z,9.03
2023-04-18T09:25:40.784Z,9.53
2023-04-18T09:28:28.023Z,9.00
2023-04-18T09:30:57.178Z,8.93
2023-04-18T09:33:29.911Z,9.47
2023-04-18T09:36:01.405Z,8.70
2023-04-18T09:38:42.092Z,8.17
2023-04-18T09:41:13.095Z,8.80
2023-04-18T09:43:41.024Z,8.37
2023-04-18T09:46:09.736Z,8.63
2023-04-18T09:48:37.689Z,8.57
2023-04-18T09:51:07.953Z,8.40
2023-04-18T09:53:40.608Z,8.47
2023-04-18T09:56:14.318Z,8.80
2023-04-18T09:58:43.258Z,8.60
2023-04-18T10:01:13.567Z,8.70
2023-04-18T10:03:47.282Z,8.23
2023-04-18T10:06:19.008Z,8.10
2023-04-18T10:08:50.113Z,7.80
2023-04-18T10:11:20.331Z,8.07
2023-04-18T10:13:50.500Z,8.13
2023-04-18T10:16:18.503Z,8.10
2023-04-18T10:18:46.449Z,8.50
2023-04-18T10:21:14.275Z,8.83
2023-04-18T10:23:43.216Z,8.07
2023-04-18T10:26:11.684Z,7.50
2023-04-18T10:28:56.837Z,8.60
2023-04-18T10:31:26.202Z,8.20
2023-04-18T10:36:28.291Z,8.17
2023-04-18T10:39:01.352Z,7.87
2023-04-18T10:41:30.786Z,7.97
2023-04-18T10:44:20.815Z,7.97
2023-04-18T10:47:25.866Z,7.47
2023-04-18T10:49:58.480Z,7.57
2023-04-18T10:52:27.394Z,7.77
2023-04-18T10:55:12.797Z,7.53
2023-04-18T10:57:42.226Z,7.23
2023-04-18T11:00:17.097Z,7.90
2023-04-18T11:02:56.739Z,7.40
2023-04-18T11:05:27.696Z,7.60
2023-04-18T11:07:56.566Z,8.00
2023-04-18T11:10:26.431Z,6.77
2023-04-18T11:12:56.336Z,6.77
2023-04-18T11:15:28.553Z,7.40
2023-04-18T11:17:59.438Z,6.70
2023-04-18T11:20:27.808Z,6.73
2023-04-18T11:22:56.666Z,7.07
2023-04-18T11:25:29.366Z,6.67
2023-04-18T11:28:01.469Z,6.67
2023-04-18T11:30:38.093Z,7.23
2023-04-18T11:33:07.686Z,6.70
2023-04-18T11:35:38.664Z,7.03
2023-04-18T11:38:06.550Z,6.67
2023-04-18T11:40:34.796Z,6.43
2023-04-18T11:43:03.537Z,6.33
2023-04-18T11:45:34.388Z,7.30
2023-04-18T11:48:02.433Z,6.50
2023-04-18T11:50:38.425Z,6.67
2023-04-18T11:53:06.273Z,6.83
2023-04-18T11:55:34.533Z,6.80
2023-04-18T11:58:03.320Z,6.17
2023-04-18T12:00:35.050Z,6.80
2023-04-18T12:03:04.736Z,6.40
2023-04-18T12:05:35.050Z,6.60
2023-04-18T12:08:08.579Z,6.63
2023-04-18T12:10:37.020Z,6.20
2023-04-18T12:13:07.836Z,6.37
2023-04-18T12:15:39.967Z,6.27
2023-04-18T12:18:09.540Z,6.13
2023-04-18T12:20:38.907Z,6.33
2023-04-18T12:23:08.277Z,6.60
2023-04-18T12:25:38.152Z,7.03
2023-04-18T12:28:16.663Z,6.07
2023-04-18T12:30:45.842Z,6.10
2023-04-18T12:33:13.452Z,6.60
2023-04-18T12:35:41.207Z,6.20
2023-04-18T12:38:09.581Z,6.33
2023-04-18T12:40:40.040Z,5.97
2023-04-18T12:43:08.176Z,6.03
2023-04-18T12:45:35.997Z,6.47
2023-04-18T12:48:05.592Z,5.57
2023-04-18T12:50:33.867Z,6.10
2023-04-18T12:53:03.657Z,6.07
2023-04-18T12:55:31.818Z,5.97
2023-04-18T12:57:59.747Z,6.00
2023-04-18T13:00:29.915Z,5.97
2023-04-18T13:02:58.291Z,6.57
2023-04-18T13:05:32.892Z,6.87
2023-04-18T13:10:32.850Z,6.77
2023-04-18T13:13:00.929Z,6.30
2023-04-18T13:15:28.879Z,6.27
2023-04-18T13:17:57.482Z,5.33
2023-04-18T13:20:25.609Z,5.83
2023-04-18T13:22:54.801Z,5.03
2023-04-18T13:25:23.150Z,6.07
2023-04-18T13:27:51.661Z,5.43
2023-04-18T13:30:19.474Z,5.80
2023-04-18T13:32:47.634Z,5.50
2023-04-18T13:35:19.055Z,5.37
2023-04-18T13:37:47.333Z,4.53
2023-04-18T13:40:16.776Z,4.83
2023-04-18T13:42:45.005Z,5.03
2023-04-18T13:45:13.257Z,5.70
2023-04-18T13:47:40.919Z,5.30
2023-04-18T13:50:09.972Z,5.10
2023-04-18T13:52:38.050Z,5.60
2023-04-18T13:55:06.799Z,4.80
2023-04-18T13:57:37.430Z,5.07
2023-04-18T14:00:09.898Z,5.07
2023-04-18T14:02:37.904Z,5.57
2023-04-18T14:05:06.665Z,4.87
2023-04-18T14:07:34.822Z,5.37
2023-04-18T14:10:02.534Z,4.73
2023-04-18T14:12:30.956Z,5.00
2023-04-18T14:15:00.103Z,5.40
2023-04-18T14:17:27.915Z,4.60
2023-04-18T14:19:55.585Z,4.87
2023-04-18T14:22:23.369Z,4.50
2023-04-18T14:24:52.643Z,4.60
2023-04-18T14:27:20.296Z,3.78
2023-04-18T14:29:49.003Z,4.25
2023-04-18T14:32:19.179Z,4.32
2023-04-18T14:34:46.748Z,4.18
2023-04-18T14:37:15.715Z,4.50
2023-04-18T14:39:44.163Z,4.38
2023-04-18T14:42:12.062Z,3.70
2023-04-18T14:44:39.852Z,3.65
2023-04-18T14:47:07.988Z,3.70
2023-04-18T14:49:38.090Z,4.00
2023-04-18T14:52:06.131Z,3.58
2023-04-18T14:54:34.042Z,3.70
2023-04-18T14:57:02.254Z,3.20
2023-04-18T14:59:30.246Z,3.30
2023-04-18T15:01:58.074Z,4.05
2023-04-18T15:04:26.547Z,3.80
2023-04-18T15:06:55.854Z,4.10
2023-04-18T15:09:23.695Z,3.22
2023-04-18T15:11:51.670Z,3.55
2023-04-18T15:14:19.765Z,3.10
2023-04-18T15:16:50.243Z,3.60
2023-04-18T15:19:18.141Z,4.88
2023-04-18T15:21:45.992Z,3.90
2023-04-18T15:24:16.129Z,3.50
2023-04-18T15:26:44.733Z,4.95
2023-04-18T15:29:12.992Z,5.05
2023-04-18T15:31:41.073Z,4.70
2023-04-18T15:34:08.879Z,3.75
2023-04-18T15:36:36.937Z,3.63
2023-04-18T15:39:06.141Z,3.60
2023-04-18T15:41:37.226Z,3.60
2023-04-18T15:44:07.691Z,4.00
2023-04-18T15:46:36.376Z,3.92
2023-04-18T15:49:05.583Z,3.55
2023-04-18T15:51:33.288Z,3.58
2023-04-18T15:54:01.007Z,3.83
2023-04-18T15:56:30.628Z,3.90
2023-04-18T15:59:02.305Z,3.53
2023-04-18T16:01:30.809Z,3.60
2023-04-18T16:03:58.528Z,3.78
2023-04-18T16:06:26.694Z,3.50
2023-04-18T16:08:54.391Z,4.20
2023-04-18T16:11:26.050Z,3.60
2023-04-18T16:13:53.833Z,3.80
2023-04-18T16:16:23.096Z,11.35
2023-04-18T16:18:51.192Z,2.70
2023-04-18T16:21:19.027Z,4.57
2023-04-18T16:23:46.785Z,4.30
2023-04-18T16:26:14.475Z,4.75
2023-04-18T16:28:42.347Z,4.28
2023-04-18T16:31:10.466Z,4.63
2023-04-18T16:33:39.716Z,5.10
2023-04-18T16:36:07.492Z,4.35
2023-04-18T16:38:35.307Z,4.55
2023-04-18T16:41:03.784Z,4.63
2023-04-18T16:43:36.208Z,4.82
2023-04-18T16:46:04.308Z,5.78
2023-04-18T16:48:32.611Z,29.20
2023-04-18T16:51:01.907Z,999.90
2023-04-18T16:53:29.689Z,999.90
2023-04-18T16:55:57.885Z,999.90
2023-04-18T16:58:26.120Z,999.90
2023-04-18T17:00:55.063Z,999.90
2023-04-18T17:03:23.257Z,999.90
2023-04-18T17:05:51.031Z,999.90
2023-04-18T17:08:21.653Z,999.90
2023-04-18T17:10:52.989Z,999.90
2023-04-18T17:13:20.655Z,999.90
2023-04-18T17:15:48.391Z,999.90
2023-04-18T17:18:16.317Z,999.90
2023-04-18T17:20:43.949Z,999.90
2023-04-18T17:23:11.721Z,999.90
2023-04-18T17:25:40.739Z,999.90
2023-04-18T17:28:08.638Z,999.90
2023-04-18T17:30:41.164Z,999.90
2023-04-18T17:33:09.179Z,999.90
2023-04-18T17:35:37.158Z,999.90
2023-04-18T17:38:05.813Z,37.80
2023-04-18T17:40:33.718Z,32.80
2023-04-18T17:43:02.768Z,30.57
2023-04-18T17:45:30.518Z,15.73
2023-04-18T17:47:59.445Z,5.47
2023-04-18T17:50:28.142Z,17.87
2023-04-18T17:52:56.347Z,14.40
2023-04-18T17:55:26.130Z,12.17
2023-04-18T17:57:54.261Z,11.70
2023-04-18T18:00:24.063Z,9.70
2023-04-18T18:02:51.900Z,6.73
2023-04-18T18:05:20.175Z,5.40
2023-04-18T18:07:49.260Z,5.17
2023-04-18T18:10:20.313Z,5.00
2023-04-18T18:12:48.723Z,4.67
2023-04-18T18:15:16.668Z,4.27
2023-04-18T18:17:45.798Z,4.20
2023-04-18T18:20:14.214Z,4.80
2023-04-18T18:22:42.143Z,4.17
2023-04-18T18:25:10.719Z,4.40
2023-04-18T18:27:38.923Z,4.70
2023-04-18T18:30:08.397Z,4.63
2023-04-18T18:32:36.486Z,5.07
2023-04-18T18:35:07.977Z,4.60
2023-04-18T18:37:37.053Z,4.73
2023-04-18T18:40:07.442Z,4.93
2023-04-18T18:42:35.220Z,4.93
2023-04-18T18:45:06.364Z,4.70
2023-04-18T18:47:34.542Z,4.80
2023-04-18T18:50:03.085Z,4.97
2023-04-18T18:52:33.168Z,4.43
2023-04-18T18:55:01.826Z,5.07
2023-04-18T18:57:30.686Z,5.03
2023-04-18T18:59:58.369Z,4.63
2023-04-18T19:02:26.367Z,5.00
2023-04-18T19:04:54.593Z,4.80
2023-04-18T19:07:22.545Z,4.97
2023-04-18T19:09:53.680Z,4.80
2023-04-18T19:12:21.321Z,4.93
2023-04-18T19:14:50.665Z,5.10
2023-04-18T19:17:21.958Z,5.30
2023-04-18T19:19:49.999Z,4.47
2023-04-18T19:22:18.819Z,4.87
2023-04-18T19:24:46.521Z,5.30
2023-04-18T19:27:15.772Z,5.23
2023-04-18T19:29:43.476Z,5.37
2023-04-18T19:32:11.190Z,5.47
2023-04-18T19:34:39.186Z,5.70
2023-04-18T19:37:07.391Z,5.23
2023-04-18T19:39:35.148Z,5.40
2023-04-18T19:42:03.887Z,5.07
2023-04-18T19:44:33.326Z,5.30
2023-04-18T19:47:01.109Z,5.67
2023-04-18T19:49:28.717Z,5.43
2023-04-18T19:51:57.018Z,4.73
2023-04-18T19:54:24.864Z,5.33
2023-04-18T19:56:52.692Z,4.70
2023-04-18T19:59:20.798Z,5.57
2023-04-18T20:01:50.147Z,5.37
2023-04-18T20:04:18.307Z,5.47
2023-04-18T20:06:46.353Z,5.80
2023-04-18T20:09:16.866Z,5.73
2023-04-18T20:11:44.899Z,5.23
2023-04-18T20:14:12.679Z,5.53
2023-04-18T20:16:42.984Z,5.77
2023-04-18T20:19:12.932Z,5.70
2023-04-18T20:21:41.272Z,5.80
2023-04-18T20:24:10.475Z,6.03
2023-04-18T20:26:38.434Z,5.83
2023-04-18T20:29:06.465Z,5.87
2023-04-18T20:31:34.989Z,6.30
2023-04-18T20:34:02.842Z,5.73
2023-04-18T20:36:32.256Z,5.83
2023-04-18T20:39:02.559Z,6.30
2023-04-18T20:41:32.497Z,6.23
2023-04-18T20:44:01.084Z,6.17
2023-04-18T20:46:29.091Z,6.40
2023-04-18T20:48:56.883Z,5.97
2023-04-18T20:51:24.625Z,6.23
2023-04-18T20:53:54.164Z,6.87
2023-04-18T20:56:22.159Z,6.53
2023-04-18T20:58:49.806Z,6.17
2023-04-18T21:01:17.907Z,6.47
2023-04-18T21:03:46.018Z,6.50
2023-04-18T21:06:14.079Z,6.07
2023-04-18T21:08:43.722Z,6.27
2023-04-18T21:11:13.195Z,6.47
2023-04-18T21:13:41.002Z,6.37
2023-04-18T21:16:10.313Z,6.30
2023-04-18T21:18:38.689Z,6.50
2023-04-18T21:21:07.183Z,6.67
2023-04-18T21:23:34.883Z,6.90
2023-04-18T21:26:03.083Z,6.60
2023-04-18T21:28:32.337Z,6.43
2023-04-18T21:31:01.440Z,6.60
2023-04-18T21:33:29.204Z,6.30
2023-04-18T21:35:57.190Z,5.83
2023-04-18T21:38:25.846Z,6.40
2023-04-18T21:40:54.726Z,6.43
2023-04-18T21:43:22.833Z,6.50
2023-04-18T21:45:52.284Z,5.70
2023-04-18T21:48:21.878Z,5.90
2023-04-18T21:50:55.321Z,6.20
2023-04-18T21:53:23.425Z,6.30
2023-04-18T21:55:51.580Z,6.10
2023-04-18T21:58:19.369Z,6.03
2023-04-18T22:00:47.027Z,6.17
2023-04-18T22:03:16.315Z,6.30
2023-04-18T22:05:47.292Z,5.90
2023-04-18T22:08:16.184Z,5.90
2023-04-18T22:10:44.894Z,5.83
2023-04-18T22:13:12.823Z,5.90
2023-04-18T22:15:41.015Z,5.80
2023-04-18T22:18:09.129Z,5.60
2023-04-18T22:20:39.018Z,5.90
2023-04-18T22:23:07.082Z,5.70
2023-04-18T22:25:35.279Z,6.00
2023-04-18T22:28:03.209Z,5.43
2023-04-18T22:30:32.172Z,5.47
2023-04-18T22:33:00.444Z,5.70
2023-04-18T22:35:28.545Z,5.20
2023-04-18T22:37:57.680Z,5.13
2023-04-18T22:40:26.822Z,5.10
2023-04-18T22:42:54.600Z,4.77
2023-04-18T22:45:22.645Z,4.23
2023-04-18T22:47:50.461Z,4.30
2023-04-18T22:50:19.044Z,4.60
2023-04-18T22:52:46.705Z,4.20
2023-04-18T22:55:16.609Z,3.90
2023-04-18T22:57:44.384Z,3.93
2023-04-18T23:00:13.831Z,3.90
2023-04-18T23:02:41.697Z,3.80
2023-04-18T23:05:10.863Z,3.70
2023-04-18T23:07:38.792Z,3.60
2023-04-18T23:10:07.780Z,3.40
2023-04-18T23:12:37.458Z,3.40
2023-04-18T23:15:06.106Z,3.53
2023-04-18T23:17:34.939Z,3.77
2023-04-18T23:20:03.032Z,3.27
2023-04-18T23:22:30.704Z,3.30
2023-04-18T23:24:58.611Z,3.50
2023-04-18T23:27:26.606Z,2.90
2023-04-18T23:29:56.023Z,3.27
2023-04-18T23:32:24.405Z,3.23
2023-04-18T23:34:52.335Z,3.00
2023-04-18T23:37:20.035Z,3.03
2023-04-18T23:39:47.860Z,2.97
2023-04-18T23:42:15.561Z,3.17
2023-04-18T23:44:43.386Z,3.00
2023-04-18T23:47:13.308Z,2.87
2023-04-18T23:49:40.935Z,2.83
2023-04-18T23:52:08.896Z,3.10
2023-04-18T23:54:36.898Z,3.10
2023-04-18T23:57:04.873Z,2.70
2023-04-18T23:59:32.588Z,2.80
